Terminal Aerodrome Forecast
Issued by NWS

Home | Current Version | Previous Version | Text Only | Print | Product List | Glossary On
Versions: 1 2 3 4 5 6 7 8 9 10 11 12 13 14 15 16
000
FTUS46 KSGX 260440 AAB
TAFPSP
TAF AMD
KPSP 260440Z 2605/2624 33011KT P6SM FEW200
      TEMPO 2605/2606 33012G20KT
     FM260700 VRB05KT P6SM SCT200
     FM262000 33012KT P6SM SCT200=

USA.gov is the U.S. government's official web portal to all federal, state and local government web resources and services.